.
WxDataArchive / Data Records for 2014-10-28
2014-10-27 October 2014 2014-10-29

Data Records for Tuesday, 28 October 2014

Time	Temp	Chill	HIndex	Humid	Dewpt	 Wind 	HiWind	WindDir	Rain 	Barom
-----	----	-----	------	-----	-----	------	------	-------	-----	-----
00:00	70.1	70.1	70.1	49	50.0	0	3	248	0.00	29.727 
00:05	70.1	70.1	70.1	49	50.0	1	4	270	0.00	29.727 
00:10	69.9	69.9	69.9	49	49.9	0	2	270	0.00	29.727 
00:15	69.9	69.9	69.9	50	50.4	0	2	270	0.00	29.726 
00:20	69.8	69.8	69.8	50	50.3	0	3	270	0.00	29.726 
00:25	69.6	69.6	69.6	50	50.1	0	2	270	0.00	29.726 
00:30	69.6	69.6	69.6	51	50.7	1	5	112	0.00	29.727 
00:35	69.3	69.3	69.3	51	50.4	0	2	135	0.00	29.727 
00:40	69.3	69.3	69.3	52	50.9	0	2	225	0.00	29.727 
00:45	69.1	69.1	69.1	52	50.7	1	4	292	0.00	29.725 
00:50	68.9	68.9	68.9	52	50.5	1	4	292	0.00	29.725 
00:55	68.9	68.9	68.9	52	50.5	0	2	248	0.00	29.725 
01:00	68.9	68.9	68.9	52	50.5	1	4	270	0.00	29.722 
01:05	68.9	68.9	68.9	53	51.1	1	3	270	0.00	29.722 
01:10	68.9	68.9	68.9	53	51.1	1	4	292	0.00	29.722 
01:15	68.8	68.8	68.8	53	51.0	1	3	270	0.00	29.721 
01:20	68.8	68.8	68.8	53	51.0	1	5	270	0.00	29.721 
01:25	68.6	68.6	68.6	53	50.8	1	3	248	0.00	29.721 
01:30	68.6	68.6	68.6	53	50.8	1	3	248	0.00	29.719 
01:35	68.4	68.4	68.4	54	51.1	1	3	248	0.00	29.719 
01:40	68.4	68.4	68.4	54	51.1	0	2	248	0.00	29.719 
01:45	68.3	68.3	68.3	54	51.0	1	4	270	0.00	29.721 
01:50	68.3	68.3	68.3	54	51.0	0	4	248	0.00	29.721 
01:55	68.3	68.3	68.3	54	51.0	1	4	248	0.00	29.721 
02:00	68.1	68.1	68.1	55	51.3	1	2	292	0.00	29.722 
02:05	68.1	68.1	68.1	55	51.3	1	4	248	0.00	29.722 
02:10	68.1	68.1	68.1	55	51.3	1	3	248	0.00	29.722 
02:15	67.9	67.9	67.9	56	51.6	0	2	248	0.00	29.723 
02:20	67.8	67.8	67.8	56	51.5	0	2	248	0.00	29.723 
02:25	67.8	67.8	67.8	57	52.0	0	3	248	0.00	29.723 
02:30	67.6	67.6	67.6	57	51.8	1	4	248	0.00	29.719 
02:35	67.8	67.8	67.8	57	52.0	1	5	248	0.00	29.719 
02:40	67.8	67.8	67.8	57	52.0	1	3	270	0.00	29.719 
02:45	67.6	67.6	67.6	58	52.3	0	3	270	0.00	29.716 
02:50	67.6	67.6	67.6	58	52.3	0	2	270	0.00	29.716 
02:55	67.4	67.4	67.4	58	52.1	1	3	270	0.00	29.716 
03:00	67.4	67.4	67.4	59	52.6	0	2	270	0.00	29.712 
03:05	67.3	67.3	67.3	59	52.5	0	2	270	0.00	29.712 
03:10	67.3	67.3	67.3	59	52.5	0	2	270	0.00	29.712 
03:15	67.3	67.3	67.3	59	52.5	1	5	248	0.00	29.706 
03:20	67.3	67.3	67.3	60	52.9	0	1	248	0.00	29.706 
03:25	67.1	67.1	67.1	60	52.7	0	2	248	0.00	29.706 
03:30	67.1	67.1	67.1	60	52.7	0	3	248	0.00	29.705 
03:35	67.1	67.1	67.1	60	52.7	1	4	248	0.00	29.705 
03:40	67.1	67.1	67.1	61	53.2	0	2	248	0.00	29.705 
03:45	67.1	67.1	67.1	61	53.2	0	3	248	0.00	29.702 
03:50	66.9	66.9	66.9	61	53.0	0	1	248	0.00	29.702 
03:55	66.9	66.9	66.9	62	53.4	0	2	248	0.00	29.702 
04:00	67.1	67.1	67.1	61	53.2	1	3	248	0.00	29.698 
04:05	67.1	67.1	67.1	62	53.6	0	2	248	0.00	29.698 
04:10	67.1	67.1	67.1	62	53.6	0	1	270	0.00	29.698 
04:15	67.1	67.1	67.1	62	53.6	0	3	270	0.00	29.698 
04:20	66.9	66.9	66.9	62	53.4	0	1	270	0.00	29.698 
04:25	66.9	66.9	66.9	62	53.4	0	3	270	0.00	29.698 
04:30	67.1	67.1	67.1	62	53.6	0	4	248	0.00	29.699 
04:35	67.1	67.1	67.1	62	53.6	0	4	248	0.00	29.699 
04:40	67.1	67.1	67.1	62	53.6	1	5	248	0.00	29.699 
04:45	67.3	67.3	67.3	62	53.8	1	5	270	0.00	29.694 
04:50	67.3	67.3	67.3	62	53.8	0	4	248	0.00	29.694 
04:55	67.1	67.1	67.1	62	53.6	0	2	248	0.00	29.694 
05:00	67.1	67.1	67.1	62	53.6	1	3	270	0.00	29.693 
05:05	67.1	67.1	67.1	63	54.1	0	4	270	0.00	29.693 
05:10	67.1	67.1	67.1	63	54.1	0	2	270	0.00	29.693 
05:15	67.1	67.1	67.1	63	54.1	0	3	270	0.00	29.695 
05:20	66.9	66.9	66.9	63	53.9	1	4	270	0.00	29.695 
05:25	66.9	66.9	66.9	63	53.9	0	3	270	0.00	29.695 
05:30	66.9	66.9	66.9	64	54.3	1	4	248	0.00	29.701 
05:35	66.9	66.9	66.9	64	54.3	0	3	248	0.00	29.701 
05:40	66.9	66.9	66.9	64	54.3	0	2	248	0.00	29.701 
05:45	66.9	66.9	66.9	64	54.3	0	2	248	0.00	29.695 
05:50	66.9	66.9	66.9	64	54.3	0	2	248	0.00	29.695 
05:55	66.8	66.8	66.8	65	54.6	0	3	248	0.00	29.695 
06:00	66.8	66.8	66.8	65	54.6	0	4	248	0.00	29.699 
06:05	66.8	66.8	66.8	65	54.6	1	3	248	0.00	29.699 
06:10	66.9	66.9	66.9	65	54.7	0	3	248	0.00	29.699 
06:15	66.9	66.9	66.9	65	54.7	1	5	248	0.00	29.692 
06:20	66.9	66.9	66.9	65	54.7	0	4	248	0.00	29.692 
06:25	67.1	67.1	67.1	65	54.9	1	4	248	0.00	29.692 
06:30	67.1	67.1	67.1	65	54.9	1	5	270	0.00	29.695 
06:35	67.1	67.1	67.1	65	54.9	0	4	270	0.00	29.695 
06:40	67.1	67.1	67.1	65	54.9	1	4	270	0.00	29.695 
06:45	67.1	67.1	67.1	65	54.9	1	4	270	0.00	29.700 
06:50	67.3	67.3	67.3	65	55.1	1	6	270	0.00	29.700 
06:55	67.3	67.3	67.3	67	56.0	1	3	270	0.00	29.700 
07:00	66.4	66.4	66.4	73	57.5	0	3	270	0.03	29.714 
07:05	65.3	65.3	65.3	78	58.3	0	1	270	0.00	29.714 
07:10	64.3	64.3	64.3	81	58.3	0	4	270	0.04	29.714 
07:15	63.5	63.5	63.5	84	58.6	0	1	270	0.03	29.722 
07:20	62.9	62.9	62.9	86	58.6	0	4	270	0.06	29.722 
07:25	62.6	62.6	62.6	87	58.7	1	5	270	0.01	29.722 
07:30	62.4	62.4	62.4	88	58.8	1	6	248	0.02	29.729 
07:35	62.1	62.1	62.1	89	58.8	2	5	248	0.02	29.729 
07:40	62.0	62.0	62.0	90	59.0	1	4	292	0.00	29.729 
07:45	61.6	61.6	61.6	91	58.9	0	1	270	0.00	29.723 
07:50	61.6	61.6	61.6	91	58.9	0	4	270	0.00	29.723 
07:55	61.5	61.5	61.5	91	58.8	0	3	270	0.00	29.723 
08:00	61.3	61.3	61.3	92	59.0	0	2	270	0.00	29.724 
08:05	61.3	61.3	61.3	92	59.0	0	2	248	0.00	29.724 
08:10	61.3	61.3	61.3	92	59.0	0	1	248	0.00	29.724 
08:15	61.2	61.2	61.2	92	58.9	0	1	248	0.00	29.742 
08:20	61.2	61.2	61.2	92	58.9	0	1	248	0.00	29.742 
08:25	61.2	61.2	61.2	92	58.9	0	2	248	0.00	29.742 
08:30	61.2	61.2	61.2	93	59.2	0	2	248	0.00	29.740 
08:35	61.2	61.2	61.2	93	59.2	0	2	248	0.00	29.740 
08:40	61.2	61.2	61.2	93	59.2	0	1	248	0.00	29.740 
08:45	61.2	61.2	61.2	93	59.2	0	4	248	0.00	29.731 
08:50	61.2	61.2	61.2	93	59.2	1	3	270	0.00	29.731 
08:55	61.2	61.2	61.2	92	58.9	1	5	270	0.00	29.731 
09:00	61.2	61.2	61.2	92	58.9	0	3	68	0.00	29.726 
09:05	61.2	61.2	61.2	92	58.9	1	3	270	0.01	29.726 
09:10	61.2	61.2	61.2	92	58.9	0	3	270	0.00	29.726 
09:15	61.2	61.2	61.2	92	58.9	0	2	270	0.00	29.718 
09:20	61.2	61.2	61.2	92	58.9	0	1	248	0.00	29.718 
09:25	61.2	61.2	61.2	92	58.9	0	2	248	0.00	29.718 
09:30	61.3	61.3	61.3	92	59.0	1	4	248	0.00	29.743 
09:35	61.3	61.3	61.3	91	58.6	0	2	248	0.01	29.743 
09:40	61.2	61.2	61.2	92	58.9	0	2	248	0.01	29.743 
09:45	61.2	61.2	61.2	92	58.9	0	1	248	0.00	29.748 
09:50	61.2	61.2	61.2	92	58.9	0	3	248	0.00	29.748 
09:55	61.0	61.0	61.0	92	58.7	0	2	248	0.00	29.748 
10:00	61.0	61.0	61.0	92	58.7	1	4	248	0.00	29.745 
10:05	61.0	61.0	61.0	92	58.7	1	4	248	0.00	29.745 
10:10	61.0	61.0	61.0	92	58.7	1	5	248	0.00	29.745 
10:15	61.0	61.0	61.0	92	58.7	1	4	270	0.00	29.751 
10:20	61.0	61.0	61.0	92	58.7	0	2	270	0.00	29.751 
10:25	61.0	61.0	61.0	92	58.7	1	3	270	0.00	29.751 
10:30	61.0	61.0	61.0	92	58.7	0	3	248	0.00	29.748 
10:35	61.0	61.0	61.0	92	58.7	1	4	270	0.00	29.748 
10:40	60.9	60.9	60.9	92	58.6	1	4	270	0.00	29.748 
10:45	60.9	60.9	60.9	92	58.6	1	5	270	0.00	29.759 
10:50	60.5	60.5	60.5	92	58.2	2	7	270	0.00	29.759 
10:55	60.2	60.2	60.2	92	57.9	1	5	270	0.00	29.759 
11:00	59.8	59.8	59.8	91	57.2	1	3	270	0.01	29.771 
11:05	59.6	59.6	59.6	91	57.0	0	2	270	0.00	29.771 
11:10	59.5	59.5	59.5	92	57.2	0	2	270	0.00	29.771 
11:15	59.3	59.3	59.3	92	57.0	1	3	270	0.00	29.774 
11:20	59.3	59.3	59.3	92	57.0	1	3	270	0.00	29.774 
11:25	59.3	59.3	59.3	92	57.0	1	4	315	0.00	29.774 
11:30	59.3	59.3	59.3	92	57.0	1	5	270	0.00	29.789 
11:35	59.2	59.2	59.2	92	56.9	1	4	270	0.00	29.789 
11:40	58.9	58.9	58.9	91	56.3	2	5	270	0.00	29.789 
11:45	58.6	58.6	58.6	91	56.0	1	5	270	0.00	29.793 
11:50	58.3	58.3	58.3	90	55.4	1	4	270	0.00	29.793 
11:55	58.3	58.3	58.3	90	55.4	1	3	270	0.00	29.793 
12:00	58.1	58.1	58.1	89	54.9	1	4	270	0.00	29.794 
12:05	58.1	58.1	58.1	88	54.6	1	3	270	0.00	29.794 
12:10	58.1	58.1	58.1	87	54.2	2	4	270	0.00	29.794 
12:15	58.0	58.0	58.0	86	53.8	2	5	270	0.00	29.805 
12:20	58.1	58.1	58.1	85	53.6	1	4	270	0.00	29.805 
12:25	58.1	58.1	58.1	85	53.6	1	3	270	0.00	29.805 
12:30	58.1	58.1	58.1	85	53.6	0	2	270	0.00	29.809 
12:35	58.3	58.3	58.3	85	53.8	0	3	270	0.00	29.809 
12:40	58.4	58.4	58.4	85	53.9	2	4	270	0.00	29.809 
12:45	58.3	58.3	58.3	84	53.5	1	4	270	0.00	29.821 
12:50	58.1	58.1	58.1	83	53.0	2	4	270	0.00	29.821 
12:55	58.0	58.0	58.0	82	52.5	3	7	270	0.00	29.821 
13:00	58.1	58.1	58.1	82	52.6	1	4	270	0.00	29.821 
13:05	57.8	57.8	57.8	81	52.0	2	6	270	0.00	29.821 
13:10	57.8	57.8	57.8	80	51.7	1	5	270	0.00	29.821 
13:15	57.6	57.6	57.6	80	51.5	1	4	270	0.00	29.821 
13:20	57.8	57.8	57.8	80	51.7	1	4	270	0.00	29.821 
13:25	57.8	57.8	57.8	79	51.3	1	3	270	0.00	29.821 
13:30	57.6	57.6	57.6	79	51.1	2	7	270	0.00	29.819 
13:35	57.8	57.8	57.8	79	51.3	2	4	270	0.00	29.819 
13:40	58.0	58.0	58.0	77	50.8	1	5	270	0.00	29.819 
13:45	58.3	58.3	58.3	77	51.1	2	5	270	0.00	29.826 
13:50	58.4	58.4	58.4	75	50.5	3	7	270	0.00	29.826 
13:55	58.4	58.4	58.4	74	50.1	2	5	292	0.00	29.826 
14:00	58.6	58.6	58.6	74	50.3	1	5	270	0.00	29.825 
14:05	58.7	58.7	58.7	73	50.1	1	3	270	0.00	29.825 
14:10	58.7	58.7	58.7	71	49.3	1	3	270	0.00	29.825 
14:15	58.6	58.6	58.6	69	48.5	1	6	270	0.00	29.815 
14:20	58.6	58.6	58.6	68	48.1	2	4	270	0.00	29.815 
14:25	58.6	58.6	58.6	67	47.7	1	4	292	0.00	29.815 
14:30	58.7	58.7	58.7	64	46.6	2	4	292	0.00	29.824 
14:35	58.7	58.7	58.7	63	46.1	2	7	270	0.00	29.824 
14:40	58.9	58.9	58.9	63	46.3	2	4	270	0.00	29.824 
14:45	58.9	58.9	58.9	61	45.5	2	5	270	0.00	29.826 
14:50	59.0	59.0	59.0	60	45.1	1	4	270	0.00	29.826 
14:55	59.0	59.0	59.0	60	45.1	2	5	270	0.00	29.826 
15:00	59.0	59.0	59.0	62	46.0	1	3	270	0.00	29.824 
15:05	59.0	59.0	59.0	61	45.6	2	5	248	0.00	29.824 
15:10	59.0	59.0	59.0	58	44.2	2	6	270	0.00	29.824 
15:15	59.0	59.0	59.0	56	43.3	2	5	270	0.00	29.818 
15:20	58.9	58.9	58.9	55	42.8	3	5	270	0.00	29.818 
15:25	58.9	58.9	58.9	57	43.7	2	5	270	0.00	29.818 
15:30	58.9	58.9	58.9	58	44.1	2	6	292	0.00	29.821 
15:35	59.0	59.0	59.0	56	43.3	2	6	270	0.00	29.821 
15:40	59.5	59.5	59.5	53	42.4	2	4	270	0.00	29.821 
15:45	59.3	59.3	59.3	51	41.2	2	5	292	0.00	29.821 
15:50	59.2	59.2	59.2	52	41.6	4	7	292	0.00	29.821 
15:55	59.2	59.2	59.2	53	42.1	1	4	292	0.00	29.821 
16:00	59.3	59.3	59.3	52	41.7	2	6	292	0.00	29.826 
16:05	59.8	59.8	59.8	50	41.1	2	6	270	0.00	29.826 
16:10	59.6	59.6	59.6	49	40.4	3	7	292	0.00	29.826 
16:15	59.8	59.8	59.8	50	41.1	2	9	270	0.00	29.826 
16:20	59.9	59.9	59.9	50	41.2	2	6	292	0.00	29.826 
16:25	59.8	59.8	59.8	52	42.1	3	7	270	0.00	29.826 
16:30	59.9	59.9	59.9	52	42.2	2	5	292	0.00	29.828 
16:35	60.1	60.1	60.1	52	42.4	2	6	270	0.00	29.828 
16:40	60.1	60.1	60.1	53	42.9	2	6	270	0.00	29.828 
16:45	59.9	59.9	59.9	52	42.2	3	7	270	0.00	29.834 
16:50	60.1	60.1	60.1	53	42.9	1	4	270	0.00	29.834 
16:55	60.1	60.1	60.1	52	42.4	3	7	292	0.00	29.834 
17:00	60.1	60.1	60.1	53	42.9	2	4	270	0.00	29.837 
17:05	60.1	60.1	60.1	53	42.9	1	5	270	0.00	29.837 
17:10	60.2	60.2	60.2	50	41.5	3	12	270	0.00	29.837 
17:15	60.2	60.2	60.2	48	40.4	2	5	270	0.00	29.835 
17:20	60.2	60.2	60.2	48	40.4	2	7	270	0.00	29.835 
17:25	60.1	60.1	60.1	47	39.8	2	6	270	0.00	29.835 
17:30	59.9	59.9	59.9	47	39.6	3	5	270	0.00	29.841 
17:35	59.8	59.8	59.8	49	40.6	2	5	292	0.00	29.841 
17:40	59.6	59.6	59.6	48	39.9	2	7	270	0.00	29.841 
17:45	59.3	59.3	59.3	48	39.6	2	5	270	0.00	29.841 
17:50	59.2	59.2	59.2	49	40.0	2	5	270	0.00	29.841 
17:55	58.9	58.9	58.9	48	39.2	2	6	270	0.00	29.841 
18:00	58.6	58.6	58.6	49	39.5	2	4	270	0.00	29.842 
18:05	58.4	58.4	58.4	49	39.3	2	4	270	0.00	29.842 
18:10	58.3	58.3	58.3	50	39.7	1	4	270	0.00	29.842 
18:15	58.0	58.0	58.0	50	39.5	1	3	270	0.00	29.848 
18:20	57.8	57.8	57.8	51	39.8	1	5	248	0.00	29.848 
18:25	57.6	57.6	57.6	50	39.1	1	5	270	0.00	29.848 
18:30	57.5	57.5	57.5	50	39.0	1	5	270	0.00	29.860 
18:35	57.2	57.2	57.2	50	38.7	1	3	270	0.00	29.860 
18:40	57.0	57.0	57.0	51	39.1	0	2	270	0.00	29.860 
18:45	56.7	56.7	56.7	51	38.8	1	4	270	0.00	29.868 
18:50	56.6	56.6	56.6	52	39.2	0	2	248	0.00	29.868 
18:55	56.6	56.6	56.6	52	39.2	0	2	248	0.00	29.868 
19:00	56.5	56.5	56.5	53	39.6	1	3	248	0.00	29.882 
19:05	56.2	56.2	56.2	53	39.3	0	1	248	0.00	29.882 
19:10	56.0	56.0	56.0	54	39.6	0	2	248	0.00	29.882 
19:15	55.7	55.7	55.7	55	39.8	0	2	248	0.00	29.893 
19:20	55.6	55.6	55.6	55	39.7	0	2	248	0.00	29.893 
19:25	55.4	55.4	55.4	55	39.5	1	4	270	0.00	29.893 
19:30	55.3	55.3	55.3	54	38.9	0	3	270	0.00	29.900 
19:35	55.1	55.1	55.1	54	38.8	1	3	270	0.00	29.900 
19:40	55.0	55.0	55.0	55	39.1	0	3	270	0.00	29.900 
19:45	54.8	54.8	54.8	56	39.4	0	1	270	0.00	29.903 
19:50	54.5	54.5	54.5	56	39.1	0	2	270	0.00	29.903 
19:55	54.4	54.4	54.4	56	39.0	1	4	270	0.00	29.903 
20:00	54.4	54.4	54.4	56	39.0	1	4	270	0.00	29.906 
20:05	54.4	54.4	54.4	56	39.0	1	3	270	0.00	29.906 
20:10	54.2	54.2	54.2	56	38.8	0	2	270	0.00	29.906 
20:15	54.1	54.1	54.1	56	38.8	0	2	270	0.00	29.915 
20:20	53.9	53.9	53.9	56	38.6	0	1	270	0.00	29.915 
20:25	53.6	53.6	53.6	56	38.3	0	1	270	0.00	29.915 
20:30	53.6	53.6	53.6	57	38.7	0	1	270	0.00	29.915 
20:35	53.5	53.5	53.5	56	38.2	0	2	270	0.00	29.915 
20:40	53.3	53.3	53.3	57	38.5	0	1	270	0.00	29.915 
20:45	53.3	53.3	53.3	57	38.5	0	1	270	0.00	29.915 
20:50	53.2	53.2	53.2	57	38.4	0	1	270	0.00	29.915 
20:55	53.1	53.1	53.1	57	38.3	0	1	270	0.00	29.915 
21:00	53.1	53.1	53.1	58	38.7	0	1	270	0.00	29.915 
21:05	52.8	52.8	52.8	58	38.4	0	1	270	0.00	29.915 
21:10	52.6	52.6	52.6	58	38.2	0	1	270	0.00	29.915 
21:15	52.5	52.5	52.5	58	38.2	0	1	270	0.00	29.916 
21:20	52.2	52.2	52.2	59	38.3	0	1	270	0.00	29.916 
21:25	52.0	52.0	52.0	59	38.1	0	1	270	0.00	29.916 
21:30	51.9	51.9	51.9	60	38.5	0	1	270	0.00	29.919 
21:35	51.9	51.9	51.9	60	38.5	0	1	270	0.00	29.919 
21:40	51.7	51.7	51.7	60	38.3	0	1	270	0.00	29.919 
21:45	51.6	51.6	51.6	60	38.2	0	2	270	0.00	29.927 
21:50	51.6	51.6	51.6	60	38.2	0	1	270	0.00	29.927 
21:55	51.4	51.4	51.4	61	38.4	0	1	270	0.00	29.927 
22:00	51.4	51.4	51.4	60	38.0	0	1	270	0.00	29.929 
22:05	51.3	51.3	51.3	60	37.9	0	1	270	0.00	29.929 
22:10	51.3	51.3	51.3	60	37.9	0	1	270	0.00	29.929 
22:15	51.1	51.1	51.1	60	37.7	0	1	270	0.00	29.931 
22:20	51.0	51.0	51.0	60	37.6	0	1	270	0.00	29.931 
22:25	50.7	50.7	50.7	61	37.7	0	0	---	0.00	29.931 
22:30	50.4	50.4	50.4	62	37.9	0	0	---	0.00	29.933 
22:35	50.2	50.2	50.2	62	37.7	0	0	---	0.00	29.933 
22:40	49.9	49.9	49.9	62	37.4	0	0	---	0.00	29.933 
22:45	49.6	49.6	49.6	63	37.5	0	0	---	0.00	29.932 
22:50	49.4	49.4	49.4	63	37.3	0	0	---	0.00	29.932 
22:55	49.2	49.2	49.2	64	37.5	0	0	---	0.00	29.932 
23:00	49.2	49.2	49.2	64	37.5	0	1	270	0.00	29.935 
23:05	49.2	49.2	49.2	64	37.5	0	0	---	0.00	29.935 
23:10	49.2	49.2	49.2	63	37.1	0	1	270	0.00	29.935 
23:15	49.4	49.4	49.4	63	37.3	0	0	---	0.00	29.937 
23:20	49.4	49.4	49.4	63	37.3	0	0	---	0.00	29.937 
23:25	49.4	49.4	49.4	62	36.9	0	1	270	0.00	29.937 
23:30	49.2	49.2	49.2	63	37.1	0	0	---	0.00	29.939 
23:35	49.2	49.2	49.2	64	37.5	0	1	270	0.00	29.939 
23:40	49.1	49.1	49.1	64	37.5	0	0	---	0.00	29.939 
23:45	48.9	48.9	48.9	64	37.3	0	0	---	0.00	29.946 
23:50	48.9	48.9	48.9	64	37.3	0	1	270	0.00	29.946 
23:55	48.8	48.8	48.8	64	37.2	0	0	---	0.00	29.946 

CoCoRaHS
IN-AL-39
A2 Web Hosting
Creative Commons License
GoDaddy
search engine by freefind advanced

loaded 2018-11-14 03:53:23 • last modified 2010-11-18 10:43:29
Privacy PolicyDisclaimer
• wx.awcolley.com is powered by PmWiki v.2002016 •
• all content (unless otherwise noted) © 2018 A W Colley